Adams, Oklahoma
Current Conditions -  °F | °C
As of 11:15 AM on Thursday 27 Nov 2014 (Local Time) from KLBL Reporting Station
Clear Clear  
Wind Chill:   Ceiling: Unl
Heat Index:   Visibility: 10mi
Dew Point: -6°   Wind: 17mph
Humidity: 42%   Direction: 190°S
Pressure: 30.36"   Gusts: 21mph
Location:  36.76°N, 101.08°W
Report Text: KLBL 271715Z AUTO 19015G18KT 10SM CLR 06/M06 A3036 RMK AO1
Loading
Personal Weather Stations






























Interactive Weather Map New forecast layout! Learn more

10-Day Weather Forecast

Advertisements
Track Severe Weather on mobile